Time;durP1;ratioP1;P1;durP2;ratioP2;P2;SDS_P1;SDS_P2;PMS_P1;PMS_P2;Temp;Humidity;BMP_temperature;BMP_pressure;BME280_temperature;BME280_humidity;BME280_pressure;Samples;Min_cycle;Max_cycle;Signal;HPM_P1;HPM_P2
2021/10/04 00:00:17;;;;;;;22.99;10.91;;;;;;;8.84;62.25;101124.19;362880;145;864534;-60
2021/10/04 00:01:19;;;;;;;16.20;10.27;;;;;;;8.78;62.60;101122.38;365542;145;857353;-60
2021/10/04 00:02:20;;;;;;;20.49;11.44;;;;;;;8.72;62.67;101125.70;362814;146;857186;-60
2021/10/04 00:03:22;;;;;;;18.29;10.22;;;;;;;8.67;62.96;101123.90;363053;145;864914;-60
2021/10/04 00:04:24;;;;;;;19.65;10.85;;;;;;;8.61;63.22;101119.47;363513;147;859955;-59
2021/10/04 00:05:26;;;;;;;20.78;10.89;;;;;;;8.56;63.38;101116.82;361844;147;858679;-60
2021/10/04 00:06:29;;;;;;;20.81;10.95;;;;;;;8.51;63.56;101125.30;362830;145;863941;-60
2021/10/04 00:07:31;;;;;;;20.74;11.13;;;;;;;8.50;63.66;101108.96;364498;145;857256;-60
2021/10/04 00:08:33;;;;;;;19.88;10.98;;;;;;;8.49;63.45;101112.38;364407;146;858748;-59
2021/10/04 00:09:35;;;;;;;17.47;10.44;;;;;;;8.45;63.40;101110.52;362031;145;863505;-60
2021/10/04 00:10:37;;;;;;;19.13;9.83;;;;;;;8.43;63.59;101118.25;363576;145;856433;-60
2021/10/04 00:11:39;;;;;;;18.97;10.30;;;;;;;8.43;63.58;101107.92;362446;146;856651;-60
2021/10/04 00:12:41;;;;;;;21.34;10.78;;;;;;;8.48;63.63;101107.99;363833;145;856566;-60
2021/10/04 00:13:42;;;;;;;17.69;9.96;;;;;;;8.56;63.54;101109.08;362645;146;856039;-60
2021/10/04 00:14:44;;;;;;;23.42;10.84;;;;;;;8.62;63.18;101110.89;363595;146;863944;-60
2021/10/04 00:15:46;;;;;;;19.44;10.21;;;;;;;8.65;62.83;101108.36;368152;146;864144;-59
2021/10/04 00:16:50;;;;;;;26.23;11.34;;;;;;;8.66;62.75;101102.36;361817;146;863882;-60
2021/10/04 00:17:52;;;;;;;19.51;10.73;;;;;;;8.70;62.73;101105.88;364103;146;856156;-60
2021/10/04 00:18:53;;;;;;;22.83;10.42;;;;;;;8.73;62.53;101100.77;363130;146;856137;-60
2021/10/04 00:19:55;;;;;;;20.75;11.51;;;;;;;8.76;62.27;101091.35;363922;145;863710;-60
2021/10/04 00:20:57;;;;;;;19.74;12.32;;;;;;;8.80;61.98;101093.98;362402;145;863597;-60
2021/10/04 00:21:59;;;;;;;18.03;12.16;;;;;;;8.79;61.61;101089.67;363029;147;856047;-60
2021/10/04 00:25:01;;;;;;;19.10;12.03;;;;;;;8.86;62.40;101082.07;367116;142;875062;-59
2021/10/04 00:26:02;;;;;;;21.09;12.51;;;;;;;8.80;62.60;101096.58;363537;147;857308;-59
2021/10/04 00:27:04;;;;;;;18.89;12.03;;;;;;;8.83;62.51;101091.46;364470;147;857302;-59
2021/10/04 00:28:06;;;;;;;20.23;11.92;;;;;;;8.83;62.42;101084.59;362173;146;864783;-59
2021/10/04 00:29:08;;;;;;;17.63;12.19;;;;;;;8.85;62.48;101085.50;361061;147;864699;-59
2021/10/04 00:30:10;;;;;;;23.84;12.15;;;;;;;8.88;62.49;101085.55;364550;147;864622;-59
2021/10/04 00:31:12;;;;;;;18.11;11.99;;;;;;;8.90;62.30;101085.56;363175;146;860436;-60
2021/10/04 00:32:14;;;;;;;17.95;12.47;;;;;;;8.93;62.26;101080.45;361331;147;859008;-61
2021/10/04 00:33:15;;;;;;;19.76;11.49;;;;;;;8.96;62.20;101074.48;362620;147;859284;-60
2021/10/04 00:34:17;;;;;;;18.45;11.23;;;;;;;8.96;62.04;101082.23;362838;146;865460;-61
2021/10/04 00:35:22;;;;;;;20.44;12.12;;;;;;;8.96;62.11;101080.50;362845;146;857939;-60
2021/10/04 00:36:25;;;;;;;20.32;12.41;;;;;;;8.96;62.07;101080.50;362964;147;864761;-60
2021/10/04 00:37:27;;;;;;;19.95;12.15;;;;;;;8.96;61.97;101079.64;364156;147;858443;-60
2021/10/04 00:38:29;;;;;;;17.36;10.84;;;;;;;8.97;62.08;101078.80;361368;146;857240;-60
2021/10/04 00:39:32;;;;;;;16.47;10.75;;;;;;;8.94;61.98;101082.19;362990;147;864442;-60
2021/10/04 00:40:36;;;;;;;18.14;10.82;;;;;;;8.91;62.05;101077.85;365417;147;864854;-60
2021/10/04 00:41:38;;;;;;;18.14;10.97;;;;;;;8.92;62.31;101078.70;363299;146;857414;-60
2021/10/04 00:42:40;;;;;;;18.80;12.09;;;;;;;8.96;62.19;101082.23;360850;147;858801;-60
2021/10/04 00:43:41;;;;;;;18.64;11.49;;;;;;;8.95;62.05;101083.92;363297;147;866561;-60
2021/10/04 00:44:43;;;;;;;17.61;11.08;;;;;;;8.94;62.17;101082.19;363150;147;857400;-60
2021/10/04 00:45:45;;;;;;;17.41;11.40;;;;;;;8.94;62.11;101081.33;363173;146;865035;-60
2021/10/04 00:46:47;;;;;;;17.11;10.72;;;;;;;8.88;62.20;101080.38;364433;147;864630;-60
2021/10/04 00:47:49;;;;;;;22.04;10.85;;;;;;;8.86;62.39;101082.07;365362;147;858545;-60
2021/10/04 00:48:50;;;;;;;21.81;11.90;;;;;;;8.84;62.57;101090.62;362628;147;863839;-60
2021/10/04 00:49:52;;;;;;;16.21;10.64;;;;;;;8.83;62.51;101084.59;363874;147;865793;-60
2021/10/04 00:50:54;;;;;;;22.36;12.33;;;;;;;8.83;62.64;101089.77;363810;147;865125;-60
2021/10/04 00:51:56;;;;;;;19.39;11.25;;;;;;;8.83;62.57;101091.46;362321;146;858698;-60
2021/10/04 00:52:59;;;;;;;21.14;12.12;;;;;;;8.81;62.53;101101.78;363853;146;859598;-60
2021/10/04 00:54:01;;;;;;;20.72;11.48;;;;;;;8.81;62.68;101096.61;360088;147;865112;-60
2021/10/04 00:55:03;;;;;;;18.69;11.32;;;;;;;8.74;62.91;101100.78;362525;147;857155;-60
2021/10/04 00:56:05;;;;;;;18.34;11.83;;;;;;;;;;362295;146;864889;-60
2021/10/04 00:57:07;;;;;;;19.11;11.69;;;;;;;;;;363271;147;857990;-60
2021/10/04 00:58:08;;;;;;;21.99;11.47;;;;;;;;;;365061;147;865016;-60
2021/10/04 00:59:10;;;;;;;21.24;11.77;;;;;;;;;;365073;147;866155;-60
2021/10/04 01:00:16;;;;;;;19.40;10.99;;;;;;;;;;364121;147;860076;-61
2021/10/04 01:01:17;;;;;;;22.98;12.08;;;;;;;;;;363527;147;864462;-61
2021/10/04 01:02:19;;;;;;;17.56;11.64;;;;;;;;;;364174;147;864743;-60
2021/10/04 01:03:21;;;;;;;17.18;11.10;;;;;;;;;;363878;146;860911;-60
2021/10/04 01:04:26;;;;;;;18.86;10.69;;;;;;;;;;364692;147;866684;-60
2021/10/04 01:05:26;;;;;;;19.66;11.16;;;;;;;;;;362363;147;864946;-60
2021/10/04 01:06:28;;;;;;;18.91;11.03;;;;;;;;;;361017;146;860426;-60
2021/10/04 01:07:29;;;;;;;21.24;11.84;;;;;;;;;;365438;147;857226;-60
2021/10/04 01:08:31;;;;;;;16.03;11.16;;;;;;;;;;365379;146;864785;-60
2021/10/04 01:09:32;;;;;;;20.25;11.33;;;;;;;;;;363452;147;864935;-60
2021/10/04 01:10:35;;;;;;;17.42;12.09;;;;;;;;;;361982;147;857247;-60
2021/10/04 01:11:37;;;;;;;20.44;11.96;;;;;;;;;;357219;150;857696;-60
2021/10/04 01:12:39;;;;;;;19.44;11.70;;;;;;;;;;362711;147;857306;-60
2021/10/04 01:13:41;;;;;;;19.49;12.09;;;;;;;;;;363374;146;859420;-60
2021/10/04 01:14:43;;;;;;;20.13;12.21;;;;;;;;;;362682;147;857170;-60
2021/10/04 01:15:44;;;;;;;25.03;12.91;;;;;;;;;;362457;147;859424;-59
2021/10/04 01:16:47;;;;;;;18.91;12.11;;;;;;;;;;364253;147;860131;-59
2021/10/04 01:17:49;;;;;;;18.68;11.20;;;;;;;;;;362874;147;861016;-59
2021/10/04 01:18:50;;;;;;;18.74;12.19;;;;;;;;;;359864;147;857006;-59
2021/10/04 01:19:52;;;;;;;18.27;11.06;;;;;;;;;;361801;146;864798;-59
2021/10/04 01:20:54;;;;;;;25.73;11.75;;;;;;;;;;361372;146;861292;-59
2021/10/04 01:21:55;;;;;;;19.10;12.13;;;;;;;;;;364290;147;859035;-59
2021/10/04 01:22:57;;;;;;;18.29;11.79;;;;;;;;;;364751;147;858002;-59
2021/10/04 01:23:59;;;;;;;20.94;10.63;;;;;;;;;;361053;146;865910;-59
2021/10/04 01:25:00;;;;;;;19.45;10.55;;;;;;;;;;358909;147;858833;-59
2021/10/04 01:26:02;;;;;;;18.99;11.32;;;;;;;;;;357639;148;864461;-59
2021/10/04 01:27:04;;;;;;;17.80;10.91;;;;;;;;;;359893;147;857108;-59
2021/10/04 01:28:06;;;;;;;20.70;11.23;;;;;;;;;;358427;149;857715;-59
2021/10/04 01:29:08;;;;;;;18.31;11.55;;;;;;;;;;359811;149;858273;-59
2021/10/04 01:30:10;;;;;;;19.29;11.23;;;;;;;;;;357350;147;858501;-59
2021/10/04 01:31:12;;;;;;;17.24;11.50;;;;;;;;;;360267;147;858716;-59
2021/10/04 01:32:13;;;;;;;17.95;11.73;;;;;;;;;;359832;147;862661;-59
2021/10/04 01:33:15;;;;;;;18.90;11.46;;;;;;;;;;358952;147;857333;-59
2021/10/04 01:34:16;;;;;;;19.54;11.94;;;;;;;;;;360188;147;857219;-60
2021/10/04 01:35:18;;;;;;;14.62;9.61;;;;;;;;;;359692;148;857229;-61
2021/10/04 01:36:20;;;;;;;17.79;11.57;;;;;;;;;;360622;147;867758;-62
2021/10/04 01:37:22;;;;;;;16.11;11.31;;;;;;;;;;351803;150;857400;-60
2021/10/04 01:38:24;;;;;;;19.68;12.41;;;;;;;;;;352323;149;865208;-59
2021/10/04 01:39:26;;;;;;;17.22;11.30;;;;;;;;;;359494;147;857192;-59
2021/10/04 01:40:29;;;;;;;16.34;11.52;;;;;;;;;;358791;148;864862;-59
2021/10/04 01:41:30;;;;;;;17.16;12.11;;;;;;;;;;359579;147;859660;-59
2021/10/04 01:42:32;;;;;;;22.15;12.01;;;;;;;;;;360985;147;859418;-59
2021/10/04 01:43:34;;;;;;;19.80;12.00;;;;;;;;;;360086;147;857223;-59
2021/10/04 01:44:35;;;;;;;18.57;12.51;;;;;;;;;;360655;147;856657;-59
2021/10/04 01:45:37;;;;;;;17.34;11.34;;;;;;;;;;359542;149;866440;-59
2021/10/04 01:46:40;;;;;;;17.16;11.57;;;;;;;;;;359863;148;859027;-59
2021/10/04 01:47:41;;;;;;;21.74;11.99;;;;;;;;;;358729;147;857211;-59
2021/10/04 01:48:43;;;;;;;21.68;11.66;;;;;;;;;;359240;148;857633;-60
2021/10/04 01:49:45;;;;;;;17.77;12.71;;;;;;;;;;359538;148;858408;-60
2021/10/04 01:50:47;;;;;;;18.18;12.79;;;;;;;;;;358535;148;860229;-59
2021/10/04 01:51:48;;;;;;;15.81;11.29;;;;;;;;;;360570;147;857952;-62
2021/10/04 01:52:50;;;;;;;16.09;11.21;;;;;;;;;;359928;148;865108;-59
2021/10/04 01:53:51;;;;;;;19.23;12.51;;;;;;;;;;361863;147;857338;-59
2021/10/04 01:54:53;;;;;;;19.69;12.36;;;;;;;;;;359419;147;857309;-59
2021/10/04 01:55:55;;;;;;;20.19;12.85;;;;;;;;;;356675;150;866450;-59
2021/10/04 01:56:58;;;;;;;19.61;12.24;;;;;;;;;;346120;153;857283;-60
2021/10/04 02:05:34;;;;;;;17.87;11.15;;;;;;;7.44;67.69;101095.48;371957;142;882966;-59
2021/10/04 02:06:37;;;;;;;18.32;12.95;;;;;;;7.33;67.54;101108.09;360223;147;857561;-60
2021/10/04 02:07:39;;;;;;;20.99;13.35;;;;;;;7.33;67.46;101110.67;361407;147;858205;-60
2021/10/04 02:08:41;;;;;;;19.08;12.77;;;;;;;7.34;67.42;101103.83;362320;146;867143;-60
2021/10/04 02:09:47;;;;;;;21.59;13.91;;;;;;;7.36;67.15;101103.02;364465;146;857372;-60
2021/10/04 02:10:48;;;;;;;17.81;12.52;;;;;;;7.38;67.35;101116.81;364968;147;859122;-60
2021/10/04 02:11:49;;;;;;;19.31;12.11;;;;;;;7.43;67.11;101106.62;363154;147;859957;-60
2021/10/04 02:12:52;;;;;;;19.84;12.01;;;;;;;7.48;66.74;101104.17;365088;146;863712;-60
2021/10/04 02:13:53;;;;;;;23.45;11.89;;;;;;;7.52;66.34;101105.98;361551;147;866326;-60
2021/10/04 02:14:55;;;;;;;15.06;11.05;;;;;;;7.55;65.79;101103.48;361497;147;858634;-60
2021/10/04 02:15:57;;;;;;;17.93;10.32;;;;;;;7.55;65.79;101103.48;364273;146;866268;-60
2021/10/04 02:16:59;;;;;;;23.51;13.53;;;;;;;7.60;64.95;101099.30;359967;147;865772;-60
2021/10/04 02:18:00;;;;;;;18.99;11.56;;;;;;;7.63;65.58;101101.95;364908;147;859268;-60
2021/10/04 02:19:03;;;;;;;18.99;12.02;;;;;;;7.67;65.32;101100.29;364180;147;857134;-60
2021/10/04 02:20:09;;;;;;;19.68;13.07;;;;;;;7.71;65.18;101102.10;362405;146;864610;-60
2021/10/04 02:21:11;;;;;;;23.39;13.26;;;;;;;7.72;65.30;101109.00;362244;147;857134;-60
2021/10/04 02:22:13;;;;;;;18.80;13.32;;;;;;;7.74;65.50;101108.21;365315;145;858170;-60
2021/10/04 02:23:15;;;;;;;24.49;13.92;;;;;;;7.77;65.26;101112.55;361355;145;857287;-60
2021/10/04 02:24:17;;;;;;;19.03;13.05;;;;;;;7.75;65.10;101116.80;355645;150;864766;-61
2021/10/04 02:25:19;;;;;;;21.15;12.91;;;;;;;7.72;65.30;101114.16;356637;150;857712;-60
2021/10/04 02:26:21;;;;;;;22.53;13.76;;;;;;;7.70;65.21;101119.29;357898;149;858187;-60
2021/10/04 02:27:23;;;;;;;20.12;13.60;;;;;;;7.72;65.25;101112.47;358208;149;857262;-60
2021/10/04 02:28:45;;;;;;;22.80;13.71;;;;;;;7.75;65.60;101109.06;359117;150;864696;-60
2021/10/04 02:29:47;;;;;;;23.11;14.39;;;;;;;7.78;65.64;101110.86;352932;147;865113;-60
2021/10/04 02:30:51;;;;;;;25.62;14.26;;;;;;;7.83;65.79;101111.83;351665;150;858210;-60
2021/10/04 02:31:52;;;;;;;24.48;13.35;;;;;;;7.86;65.65;101109.32;352074;150;856316;-60
2021/10/04 02:32:54;;;;;;;24.63;14.64;;;;;;;7.90;65.47;101116.28;352698;150;861086;-60
2021/10/04 02:33:56;;;;;;;24.79;14.55;;;;;;;7.92;65.33;101114.61;354025;150;857182;-60
2021/10/04 02:34:58;;;;;;;19.68;12.87;;;;;;;7.93;65.39;101110.30;352181;150;864939;-60
2021/10/04 02:36:00;;;;;;;23.75;14.64;;;;;;;7.92;65.36;101119.77;355896;150;857173;-60
2021/10/04 02:37:01;;;;;;;26.12;14.59;;;;;;;7.90;65.37;101122.30;353226;150;864308;-60
2021/10/04 02:38:03;;;;;;;24.30;14.74;;;;;;;7.92;65.37;101121.46;351741;150;865463;-60
2021/10/04 02:39:05;;;;;;;22.93;14.77;;;;;;;7.91;65.42;101118.02;351765;153;864777;-60
2021/10/04 02:40:09;;;;;;;25.23;14.55;;;;;;;7.91;65.37;101118.02;352566;147;858455;-60
2021/10/04 02:41:11;;;;;;;25.11;13.74;;;;;;;7.93;65.37;101118.04;352038;150;857504;-60
2021/10/04 02:42:12;;;;;;;24.54;13.90;;;;;;;7.95;65.32;101119.84;352150;150;857347;-60
2021/10/04 02:43:18;;;;;;;20.36;13.70;;;;;;;7.94;65.18;101112.94;352015;150;864797;-60
2021/10/04 02:44:18;;;;;;;26.41;14.85;;;;;;;;;;346842;152;864773;-60
2021/10/04 02:45:21;;;;;;;23.47;14.81;;;;;;;;;;347506;153;867190;-60
2021/10/04 02:46:24;;;;;;;23.62;14.40;;;;;;;;;;346545;153;865444;-60
2021/10/04 02:47:26;;;;;;;23.51;13.99;;;;;;;;;;346678;150;857762;-60
2021/10/04 02:48:27;;;;;;;23.93;14.61;;;;;;;;;;345985;153;857523;-60
2021/10/04 02:49:29;;;;;;;20.34;13.57;;;;;;;;;;350562;153;859206;-61
2021/10/04 02:50:32;;;;;;;22.79;13.79;;;;;;;;;;350503;150;858831;-61
2021/10/04 02:51:33;;;;;;;22.31;14.70;;;;;;;;;;347980;152;857204;-61
2021/10/04 02:52:35;;;;;;;23.06;14.58;;;;;;;;;;339139;155;858580;-61
2021/10/04 02:53:36;;;;;;;23.54;14.15;;;;;;;;;;335657;155;865811;-61
2021/10/04 02:54:38;;;;;;;22.21;14.33;;;;;;;;;;340976;155;859887;-61
2021/10/04 02:55:39;;;;;;;24.91;14.24;;;;;;;;;;341888;156;866450;-61
2021/10/04 02:56:42;;;;;;;22.52;13.97;;;;;;;;;;344006;156;867420;-61
2021/10/04 02:57:43;;;;;;;20.23;13.93;;;;;;;;;;342141;155;857408;-61
2021/10/04 02:58:45;;;;;;;23.09;14.48;;;;;;;;;;341721;155;859149;-62
2021/10/04 02:59:46;;;;;;;25.44;13.56;;;;;;;;;;342049;156;859074;-61
2021/10/04 03:00:48;;;;;;;21.04;13.68;;;;;;;;;;341927;155;858894;-61
2021/10/04 03:01:49;;;;;;;26.65;14.21;;;;;;;;;;341660;155;865011;-61
2021/10/04 03:02:51;;;;;;;26.39;14.94;;;;;;;;;;341744;153;857445;-61
2021/10/04 03:03:52;;;;;;;21.41;13.78;;;;;;;;;;338425;156;861763;-61
2021/10/04 03:04:54;;;;;;;21.31;14.06;;;;;;;;;;342600;153;857262;-61
2021/10/04 03:05:56;;;;;;;20.02;13.32;;;;;;;;;;340020;156;858900;-61
2021/10/04 03:06:57;;;;;;;26.10;14.65;;;;;;;;;;342851;156;858052;-61
2021/10/04 03:08:00;;;;;;;29.15;14.56;;;;;;;;;;344027;153;866148;-61
2021/10/04 03:09:02;;;;;;;22.44;13.78;;;;;;;;;;343033;155;867411;-61
2021/10/04 03:10:04;;;;;;;22.74;14.23;;;;;;;;;;344091;156;858682;-61
2021/10/04 03:11:06;;;;;;;27.48;15.67;;;;;;;;;;343783;153;857347;-61
2021/10/04 03:12:07;;;;;;;33.34;16.12;;;;;;;;;;342174;155;857383;-61
2021/10/04 03:13:09;;;;;;;24.71;15.39;;;;;;;;;;342351;156;864990;-61
2021/10/04 03:14:12;;;;;;;25.93;14.80;;;;;;;;;;342661;156;859932;-61
2021/10/04 03:15:13;;;;;;;26.61;15.66;;;;;;;;;;341729;153;866235;-62
2021/10/04 03:16:15;;;;;;;25.25;15.83;;;;;;;;;;341331;155;857885;-61
2021/10/04 03:17:17;;;;;;;28.51;15.54;;;;;;;;;;339861;156;859209;-62
2021/10/04 03:18:18;;;;;;;28.13;16.25;;;;;;;;;;341624;153;866331;-60
2021/10/04 03:19:20;;;;;;;22.94;14.74;;;;;;;;;;342158;155;859704;-59
2021/10/04 03:20:23;;;;;;;25.59;14.80;;;;;;;;;;339265;153;864866;-60
2021/10/04 03:21:25;;;;;;;26.67;14.81;;;;;;;;;;344690;156;858525;-60
2021/10/04 03:22:26;;;;;;;25.29;14.49;;;;;;;;;;335189;156;864989;-60
2021/10/04 03:23:28;;;;;;;21.61;14.76;;;;;;;;;;335832;157;864935;-60
2021/10/04 03:24:30;;;;;;;24.79;14.22;;;;;;;;;;339646;158;864737;-60
2021/10/04 03:25:31;;;;;;;26.68;14.89;;;;;;;;;;339057;154;857569;-60
2021/10/04 03:26:34;;;;;;;27.77;14.26;;;;;;;;;;337247;157;865125;-60
2021/10/04 03:27:36;;;;;;;23.19;13.69;;;;;;;;;;337154;158;857864;-60
2021/10/04 03:28:38;;;;;;;23.08;13.94;;;;;;;;;;338751;158;859500;-60
2021/10/04 03:29:39;;;;;;;19.20;12.89;;;;;;;;;;338167;154;859180;-60
2021/10/04 03:30:41;;;;;;;26.29;14.59;;;;;;;;;;332641;157;865049;-60
2021/10/04 03:31:43;;;;;;;24.08;15.29;;;;;;;;;;339294;158;865957;-60
2021/10/04 03:32:46;;;;;;;28.53;14.81;;;;;;;;;;337441;156;860262;-60
2021/10/04 03:33:48;;;;;;;24.71;14.98;;;;;;;;;;335803;158;865688;-60
2021/10/04 03:34:49;;;;;;;25.59;14.49;;;;;;;;;;334328;160;857869;-60
2021/10/04 03:35:51;;;;;;;26.79;15.04;;;;;;;;;;332379;156;864022;-59
2021/10/04 03:36:54;;;;;;;24.09;15.71;;;;;;;;;;331345;158;857306;-60
2021/10/04 03:37:55;;;;;;;25.29;15.17;;;;;;;;;;333394;160;857248;-59
2021/10/04 03:38:57;;;;;;;25.31;16.24;;;;;;;;;;334585;158;857291;-59
2021/10/04 03:39:59;;;;;;;25.96;14.76;;;;;;;;;;330520;160;857384;-60
2021/10/04 03:41:00;;;;;;;25.62;15.52;;;;;;;;;;330872;160;858137;-59
2021/10/04 03:42:02;;;;;;;25.33;14.11;;;;;;;;;;333812;161;864357;-59
2021/10/04 03:43:04;;;;;;;29.06;14.23;;;;;;;;;;329215;158;856920;-59
2021/10/04 03:44:05;;;;;;;29.71;15.52;;;;;;;;;;333741;159;857214;-59
2021/10/04 03:45:08;;;;;;;26.86;15.61;;;;;;;;;;336618;154;857589;-59
2021/10/04 03:46:10;;;;;;;26.92;15.36;;;;;;;;;;334128;157;864871;-59
2021/10/04 03:47:12;;;;;;;26.31;15.37;;;;;;;;;;337996;157;858710;-58
2021/10/04 03:48:13;;;;;;;30.51;15.98;;;;;;;;;;336705;158;858081;-59
2021/10/04 03:49:15;;;;;;;28.68;16.41;;;;;;;;;;337036;158;859048;-59
2021/10/04 03:50:17;;;;;;;28.21;16.22;;;;;;;;;;340096;156;857414;-60
2021/10/04 03:51:19;;;;;;;25.88;15.83;;;;;;;;;;336580;157;857224;-59
2021/10/04 03:52:20;;;;;;;25.08;15.77;;;;;;;;;;337523;158;857398;-59
2021/10/04 03:53:22;;;;;;;28.47;16.26;;;;;;;;;;335725;157;857375;-59
2021/10/04 03:54:24;;;;;;;29.66;15.89;;;;;;;;;;336423;156;865462;-59
2021/10/04 03:55:25;;;;;;;29.10;15.98;;;;;;;;;;337237;158;858671;-59
2021/10/04 03:56:28;;;;;;;27.76;15.58;;;;;;;;;;336976;158;859263;-59
2021/10/04 03:57:30;;;;;;;33.07;17.06;;;;;;;;;;336152;157;859983;-59
2021/10/04 03:58:31;;;;;;;27.10;16.71;;;;;;;;;;336987;157;857209;-59
2021/10/04 03:59:33;;;;;;;35.19;16.09;;;;;;;;;;333217;161;859459;-58
2021/10/04 04:00:35;;;;;;;29.47;17.06;;;;;;;;;;332680;157;866476;-58
2021/10/04 04:01:36;;;;;;;27.61;16.00;;;;;;;;;;331725;158;857983;-59
2021/10/04 04:02:38;;;;;;;26.32;16.81;;;;;;;;;;336580;158;857323;-59
2021/10/04 04:03:39;;;;;;;26.04;15.76;;;;;;;;;;337218;159;859023;-59
2021/10/04 04:04:41;;;;;;;26.41;15.99;;;;;;;;;;335889;154;857531;-59
2021/10/04 04:05:43;;;;;;;26.45;15.95;;;;;;;;;;336102;158;865919;-60
2021/10/04 04:06:45;;;;;;;29.40;16.19;;;;;;;;;;336265;158;865123;-59
2021/10/04 04:07:46;;;;;;;29.72;16.27;;;;;;;;;;337449;156;859089;-59
2021/10/04 04:08:48;;;;;;;24.25;15.26;;;;;;;;;;338933;154;865384;-59
2021/10/04 04:09:49;;;;;;;27.63;15.64;;;;;;;;;;336231;158;857476;-59
2021/10/04 04:10:51;;;;;;;25.51;15.68;;;;;;;;;;337307;154;858372;-58
2021/10/04 04:11:53;;;;;;;26.64;16.09;;;;;;;;;;336373;156;857296;-59
2021/10/04 04:12:54;;;;;;;27.24;16.39;;;;;;;;;;337643;154;857695;-59
2021/10/04 04:13:56;;;;;;;25.90;15.86;;;;;;;;;;335350;159;865634;-59
2021/10/04 04:14:58;;;;;;;31.71;16.51;;;;;;;;;;333415;158;864472;-59
2021/10/04 04:16:00;;;;;;;26.57;16.21;;;;;;;;;;334091;157;865408;-58
2021/10/04 04:17:02;;;;;;;31.65;15.79;;;;;;;;;;335733;158;860281;-58
2021/10/04 04:18:04;;;;;;;27.34;15.59;;;;;;;;;;337171;155;857898;-59
2021/10/04 04:19:06;;;;;;;22.21;15.05;;;;;;;;;;336312;158;858043;-59
2021/10/04 04:20:08;;;;;;;26.79;15.99;;;;;;;;;;337651;158;857273;-59
2021/10/04 04:21:10;;;;;;;27.05;16.49;;;;;;;;;;339576;154;857419;-59
2021/10/04 04:22:11;;;;;;;29.14;14.90;;;;;;;;;;337272;156;857258;-59
2021/10/04 04:23:14;;;;;;;29.64;15.55;;;;;;;;;;334099;159;865009;-59
2021/10/04 04:24:18;;;;;;;29.64;15.33;;;;;;;;;;334665;161;857238;-58
2021/10/04 04:25:20;;;;;;;33.52;15.49;;;;;;;;;;333269;157;857136;-58
2021/10/04 04:26:23;;;;;;;26.23;14.64;;;;;;;;;;334076;159;866407;-59
2021/10/04 04:27:25;;;;;;;25.94;15.06;;;;;;;;;;335762;158;859488;-59
2021/10/04 04:28:26;;;;;;;25.03;15.61;;;;;;;;;;336189;156;864882;-58
2021/10/04 04:29:28;;;;;;;30.99;15.63;;;;;;;;;;336358;156;864978;-59
2021/10/04 04:30:30;;;;;;;26.71;15.11;;;;;;;;;;337292;158;865371;-59
2021/10/04 04:31:31;;;;;;;27.73;15.53;;;;;;;;;;340513;156;865544;-60
2021/10/04 04:32:33;;;;;;;28.33;15.06;;;;;;;;;;337577;156;864434;-60
2021/10/04 04:33:35;;;;;;;27.41;14.61;;;;;;;;;;339367;158;859364;-60
2021/10/04 04:34:36;;;;;;;26.46;15.14;;;;;;;;;;334557;160;865933;-60
2021/10/04 04:35:38;;;;;;;29.43;14.99;;;;;;;;;;332628;159;860421;-60
2021/10/04 04:36:40;;;;;;;26.09;15.53;;;;;;;;;;335732;158;866199;-60
2021/10/04 04:37:42;;;;;;;22.86;14.04;;;;;;;;;;331157;159;859162;-60
2021/10/04 04:38:44;;;;;;;27.67;14.71;;;;;;;;;;332457;160;865179;-61
2021/10/04 04:39:45;;;;;;;23.71;14.29;;;;;;;;;;333663;159;859471;-61
2021/10/04 04:40:47;;;;;;;22.14;13.81;;;;;;;;;;331519;160;858739;-60
2021/10/04 04:41:49;;;;;;;27.02;15.02;;;;;;;;;;334088;160;864934;-60
2021/10/04 04:42:50;;;;;;;25.56;14.76;;;;;;;;;;334238;157;857291;-61
2021/10/04 04:43:52;;;;;;;30.84;14.79;;;;;;;;;;337206;158;865625;-62
2021/10/04 04:44:53;;;;;;;24.87;13.74;;;;;;;;;;335875;158;865033;-60
2021/10/04 04:45:55;;;;;;;24.77;14.48;;;;;;;;;;336221;157;864722;-61
2021/10/04 04:46:57;;;;;;;25.59;14.45;;;;;;;;;;335920;154;861822;-60
2021/10/04 04:47:58;;;;;;;24.70;13.11;;;;;;;;;;338355;154;865733;-59
2021/10/04 04:49:00;;;;;;;25.69;14.18;;;;;;;;;;335349;154;866083;-60
2021/10/04 04:50:02;;;;;;;28.22;12.99;;;;;;;;;;338233;157;865924;-62
2021/10/04 04:51:04;;;;;;;25.55;14.29;;;;;;;;;;338060;154;865622;-60
2021/10/04 04:52:06;;;;;;;27.44;14.31;;;;;;;;;;339487;158;858890;-61
2021/10/04 04:53:07;;;;;;;24.61;14.42;;;;;;;;;;332573;157;857396;-60
2021/10/04 04:54:09;;;;;;;25.46;14.39;;;;;;;;;;334441;158;858974;-59
2021/10/04 04:55:11;;;;;;;21.79;13.42;;;;;;;;;;334089;161;865149;-60
2021/10/04 04:56:15;;;;;;;26.08;14.12;;;;;;;;;;331197;161;866554;-60
2021/10/04 04:57:17;;;;;;;23.99;14.21;;;;;;;;;;331972;158;857191;-64
2021/10/04 04:58:18;;;;;;;20.71;13.69;;;;;;;;;;337874;154;858274;-63
2021/10/04 04:59:20;;;;;;;27.23;13.89;;;;;;;;;;336164;158;857609;-60
2021/10/04 05:00:23;;;;;;;21.83;13.41;;;;;;;;;;331223;157;858312;-65
2021/10/04 05:01:24;;;;;;;28.02;14.30;;;;;;;;;;334423;158;864841;-62
2021/10/04 05:02:26;;;;;;;28.65;14.29;;;;;;;;;;334076;158;864958;-61
2021/10/04 05:03:28;;;;;;;22.75;14.44;;;;;;;;;;333671;157;864862;-62
2021/10/04 05:04:30;;;;;;;23.66;14.90;;;;;;;;;;334316;157;866691;-63
2021/10/04 05:05:31;;;;;;;25.94;15.00;;;;;;;;;;333602;161;859645;-62
2021/10/04 05:06:34;;;;;;;23.96;13.21;;;;;;;;;;334011;157;859535;-60
2021/10/04 05:07:36;;;;;;;25.21;13.76;;;;;;;;;;333583;158;859221;-61
2021/10/04 05:08:37;;;;;;;22.89;14.32;;;;;;;;;;334116;159;857324;-63
2021/10/04 05:09:39;;;;;;;24.94;14.20;;;;;;;;;;330433;161;858873;-62
2021/10/04 05:10:41;;;;;;;23.21;13.03;;;;;;;;;;334194;158;864908;-62
2021/10/04 05:11:43;;;;;;;25.36;14.49;;;;;;;;;;334957;158;858909;-61
2021/10/04 05:12:45;;;;;;;23.50;13.37;;;;;;;;;;337251;159;867140;-60
2021/10/04 05:13:47;;;;;;;24.46;13.59;;;;;;;;;;337381;155;866571;-61
2021/10/04 05:14:48;;;;;;;26.99;14.01;;;;;;;;;;334750;158;867496;-61
2021/10/04 05:15:50;;;;;;;23.90;14.04;;;;;;;;;;335380;157;856391;-60
2021/10/04 05:16:52;;;;;;;24.55;13.51;;;;;;;;;;336221;159;858494;-61
2021/10/04 05:17:53;;;;;;;23.36;13.19;;;;;;;;;;335333;158;857910;-60
2021/10/04 05:18:55;;;;;;;22.31;13.24;;;;;;;;;;331773;159;859061;-59
2021/10/04 05:19:57;;;;;;;30.75;14.50;;;;;;;;;;331646;160;861288;-59
2021/10/04 05:20:58;;;;;;;25.53;14.00;;;;;;;;;;332613;159;864934;-58
2021/10/04 05:22:00;;;;;;;23.84;14.19;;;;;;;;;;334202;156;864776;-57
2021/10/04 05:23:02;;;;;;;24.35;13.88;;;;;;;;;;336138;160;857271;-57
2021/10/04 05:24:04;;;;;;;24.69;14.15;;;;;;;;;;331445;159;857227;-58
2021/10/04 05:25:06;;;;;;;25.73;14.05;;;;;;;;;;331044;159;866616;-62
2021/10/04 05:26:08;;;;;;;30.25;14.17;;;;;;;;;;331914;159;857598;-59
2021/10/04 05:27:10;;;;;;;25.02;14.09;;;;;;;;;;333514;160;866787;-60
2021/10/04 05:28:11;;;;;;;26.37;13.66;;;;;;;;;;333172;157;865624;-61
2021/10/04 05:29:13;;;;;;;30.69;14.49;;;;;;;;;;330523;159;857848;-62
2021/10/04 05:30:16;;;;;;;31.38;14.51;;;;;;;;;;333448;160;858900;-61
2021/10/04 05:31:17;;;;;;;25.31;14.71;;;;;;;;;;335229;159;858983;-60
2021/10/04 05:32:19;;;;;;;28.96;14.13;;;;;;;;;;334451;158;856419;-60
2021/10/04 05:33:21;;;;;;;23.24;13.62;;;;;;;;;;333472;159;857440;-59
2021/10/04 05:34:22;;;;;;;29.87;14.63;;;;;;;;;;336551;157;859062;-60
2021/10/04 05:35:24;;;;;;;24.59;14.75;;;;;;;;;;336036;158;857554;-61
2021/10/04 05:36:27;;;;;;;28.63;14.32;;;;;;;;;;332771;158;859054;-59
2021/10/04 05:37:29;;;;;;;29.91;14.23;;;;;;;;;;336839;159;857622;-60
2021/10/04 05:38:30;;;;;;;29.69;14.62;;;;;;;;;;334521;157;866627;-62
2021/10/04 05:39:32;;;;;;;36.90;15.20;;;;;;;;;;334126;158;857417;-61
2021/10/04 05:40:35;;;;;;;31.33;15.18;;;;;;;;;;335974;159;857363;-61